createdAt,value
2022-11-25T00:00:24.282Z,22.58
2022-11-25T00:02:50.915Z,24.20
2022-11-25T00:05:17.691Z,25.55
2022-11-25T00:07:44.395Z,22.73
2022-11-25T00:10:11.063Z,28.33
2022-11-25T00:12:37.611Z,23.77
2022-11-25T00:15:04.537Z,26.70
2022-11-25T00:17:31.275Z,25.90
2022-11-25T00:20:01.540Z,26.48
2022-11-25T00:22:28.164Z,22.73
2022-11-25T00:24:54.657Z,22.30
2022-11-25T00:27:21.214Z,24.80
2022-11-25T00:29:47.994Z,29.92
2022-11-25T00:32:14.480Z,21.42
2022-11-25T00:34:41.006Z,25.60
2022-11-25T00:37:07.936Z,30.70
2022-11-25T00:39:34.426Z,28.08
2022-11-25T00:42:19.529Z,26.38
2022-11-25T00:44:46.115Z,26.50
2022-11-25T00:47:18.295Z,25.98
2022-11-25T00:49:47.909Z,26.73
2022-11-25T00:52:19.855Z,25.65
2022-11-25T00:54:47.756Z,23.77
2022-11-25T00:57:15.665Z,28.60
2022-11-25T00:59:42.213Z,24.13
2022-11-25T01:02:08.880Z,27.48
2022-11-25T01:04:35.984Z,25.80
2022-11-25T01:07:02.751Z,23.85
2022-11-25T01:09:29.694Z,21.90
2022-11-25T01:11:56.575Z,23.10
2022-11-25T01:14:23.873Z,22.77
2022-11-25T01:16:50.486Z,23.02
2022-11-25T01:19:18.573Z,23.65
2022-11-25T01:21:45.527Z,25.55
2022-11-25T01:24:14.455Z,24.60
2022-11-25T01:26:42.059Z,24.98
2022-11-25T01:29:15.461Z,27.77
2022-11-25T01:31:42.684Z,29.35
2022-11-25T01:34:14.991Z,26.98
2022-11-25T01:36:41.878Z,24.60
2022-11-25T01:39:09.188Z,22.35
2022-11-25T01:41:36.100Z,28.17
2022-11-25T01:44:27.635Z,25.38
2022-11-25T01:47:12.568Z,23.15
2022-11-25T01:49:47.474Z,28.13
2022-11-25T01:52:19.863Z,21.92
2022-11-25T01:54:59.712Z,22.48
2022-11-25T01:57:32.328Z,25.80
2022-11-25T02:00:01.924Z,22.98
2022-11-25T02:02:29.348Z,24.27
2022-11-25T02:04:57.916Z,24.70
2022-11-25T02:07:32.083Z,24.05
2022-11-25T02:10:00.531Z,23.67
2022-11-25T02:12:28.543Z,23.42
2022-11-25T02:14:57.171Z,24.23
2022-11-25T02:17:24.250Z,25.42
2022-11-25T02:20:21.574Z,29.98
2022-11-25T02:22:50.875Z,26.60
2022-11-25T02:25:20.533Z,26.95
2022-11-25T02:27:52.027Z,28.23
2022-11-25T02:30:19.034Z,23.60
2022-11-25T02:32:47.589Z,28.20
2022-11-25T02:35:26.170Z,25.70
2022-11-25T02:37:55.280Z,22.52
2022-11-25T02:40:22.952Z,23.50
2022-11-25T02:42:51.369Z,22.98
2022-11-25T02:45:22.783Z,24.00
2022-11-25T02:47:49.319Z,21.70
2022-11-25T02:50:15.962Z,25.92
2022-11-25T02:52:42.869Z,25.58
2022-11-25T02:55:09.532Z,19.63
2022-11-25T02:57:36.121Z,22.65
2022-11-25T03:00:03.195Z,27.38
2022-11-25T03:02:29.995Z,21.67
2022-11-25T03:04:56.703Z,24.33
2022-11-25T03:07:23.271Z,25.45
2022-11-25T03:09:49.885Z,26.75
2022-11-25T03:12:19.375Z,22.02
2022-11-25T03:14:46.069Z,22.25
2022-11-25T03:17:12.561Z,23.38
2022-11-25T03:19:39.400Z,22.38
2022-11-25T03:22:07.064Z,22.35
2022-11-25T03:24:34.086Z,23.77
2022-11-25T03:27:01.011Z,22.58
2022-11-25T03:29:27.551Z,23.35
2022-11-25T03:31:54.099Z,19.23
2022-11-25T03:34:20.796Z,20.08
2022-11-25T03:36:47.311Z,24.20
2022-11-25T03:39:14.011Z,20.85
2022-11-25T03:41:40.788Z,21.25
2022-11-25T03:44:07.285Z,20.70
2022-11-25T03:46:33.794Z,22.42
2022-11-25T03:49:00.461Z,20.55
2022-11-25T03:51:26.965Z,23.90
2022-11-25T03:53:53.798Z,29.35
2022-11-25T03:56:20.548Z,23.10
2022-11-25T03:58:47.024Z,25.58
2022-11-25T04:01:13.729Z,18.88
2022-11-25T04:03:40.566Z,23.35
2022-11-25T04:06:07.210Z,21.48
2022-11-25T04:08:33.724Z,22.27
2022-11-25T04:11:00.470Z,18.83
2022-11-25T04:13:26.959Z,22.33
2022-11-25T04:15:53.480Z,20.60
2022-11-25T04:18:20.392Z,23.85
2022-11-25T04:20:47.194Z,22.45
2022-11-25T04:23:14.374Z,24.63
2022-11-25T04:25:41.203Z,26.85
2022-11-25T04:28:07.727Z,22.20
2022-11-25T04:30:34.336Z,23.45
2022-11-25T04:33:01.679Z,23.67
2022-11-25T04:35:28.211Z,23.73
2022-11-25T04:37:54.888Z,21.25
2022-11-25T04:40:21.705Z,19.90
2022-11-25T04:42:48.267Z,21.23
2022-11-25T04:45:24.849Z,20.25
2022-11-25T04:47:52.053Z,23.23
2022-11-25T04:50:22.415Z,19.00
2022-11-25T04:52:48.910Z,18.10
2022-11-25T04:55:15.783Z,19.45
2022-11-25T04:57:42.331Z,19.20
2022-11-25T05:00:09.796Z,21.65
2022-11-25T05:02:36.681Z,22.35
2022-11-25T05:05:03.392Z,17.38
2022-11-25T05:07:29.985Z,22.10
2022-11-25T05:09:57.385Z,22.25
2022-11-25T05:12:27.616Z,20.00
2022-11-25T05:14:54.396Z,16.90
2022-11-25T05:17:26.671Z,22.33
2022-11-25T05:19:53.495Z,21.48
2022-11-25T05:22:23.688Z,21.98
2022-11-25T05:24:50.457Z,24.08
2022-11-25T05:27:18.033Z,23.13
2022-11-25T05:29:44.923Z,20.10
2022-11-25T05:32:11.842Z,20.00
2022-11-25T05:34:39.116Z,18.23
2022-11-25T05:37:06.373Z,18.20
2022-11-25T05:39:33.090Z,21.27
2022-11-25T05:41:59.833Z,16.05
2022-11-25T05:44:26.815Z,22.58
2022-11-25T05:46:53.875Z,18.60
2022-11-25T05:49:21.067Z,22.63
2022-11-25T05:51:47.958Z,19.10
2022-11-25T05:54:14.591Z,19.75
2022-11-25T05:56:41.278Z,17.90
2022-11-25T05:59:07.826Z,18.38
2022-11-25T06:01:34.402Z,20.40
2022-11-25T06:04:01.704Z,20.48
2022-11-25T06:06:28.304Z,22.08
2022-11-25T06:08:55.052Z,19.00
2022-11-25T06:11:21.556Z,17.23
2022-11-25T06:13:48.599Z,18.30
2022-11-25T06:16:18.140Z,18.05
2022-11-25T06:18:45.095Z,19.13
2022-11-25T06:21:12.379Z,16.75
2022-11-25T06:23:39.439Z,18.15
2022-11-25T06:26:07.685Z,22.90
2022-11-25T06:28:34.403Z,21.58
2022-11-25T06:31:06.511Z,16.52
2022-11-25T06:33:33.121Z,23.10
2022-11-25T06:35:59.612Z,21.67
2022-11-25T06:38:26.260Z,17.50
2022-11-25T06:40:54.217Z,19.15
2022-11-25T06:43:22.951Z,18.45
2022-11-25T06:45:49.850Z,21.40
2022-11-25T06:48:16.335Z,16.67
2022-11-25T06:50:42.892Z,19.40
2022-11-25T06:53:09.601Z,20.85
2022-11-25T06:55:36.090Z,18.60
2022-11-25T06:58:28.296Z,18.08
2022-11-25T07:00:49.349Z,20.52
2022-11-25T07:03:15.867Z,22.63
2022-11-25T07:05:42.359Z,20.17
2022-11-25T07:08:08.900Z,20.48
2022-11-25T07:10:35.428Z,19.27
2022-11-25T07:13:01.895Z,17.40
2022-11-25T07:15:28.537Z,20.77
2022-11-25T07:17:55.016Z,18.45
2022-11-25T07:20:21.528Z,16.77
2022-11-25T07:22:48.109Z,17.70
2022-11-25T07:25:14.685Z,16.90
2022-11-25T07:27:41.176Z,16.95
2022-11-25T07:30:54.824Z,18.58
2022-11-25T07:32:55.570Z,14.57
2022-11-25T07:35:22.186Z,17.13
2022-11-25T07:37:48.703Z,19.13
2022-11-25T07:40:15.352Z,17.45
2022-11-25T07:42:41.921Z,21.08
2022-11-25T07:45:08.965Z,16.77
2022-11-25T07:47:35.574Z,19.90
2022-11-25T07:50:02.146Z,18.08
2022-11-25T07:52:28.647Z,15.32
2022-11-25T07:54:55.165Z,15.75
2022-11-25T07:57:22.093Z,15.77
2022-11-25T07:59:48.621Z,22.65
2022-11-25T08:02:15.436Z,17.65
2022-11-25T08:04:42.532Z,22.38
2022-11-25T08:07:10.899Z,15.80
2022-11-25T08:09:37.807Z,17.45
2022-11-25T08:12:04.942Z,17.95
2022-11-25T08:14:31.596Z,17.45
2022-11-25T08:16:58.456Z,16.88
2022-11-25T08:19:31.176Z,22.55
2022-11-25T08:21:58.140Z,18.50
2022-11-25T08:24:24.941Z,20.63
2022-11-25T08:26:52.279Z,20.60
2022-11-25T08:29:19.818Z,19.15
2022-11-25T08:31:46.718Z,18.95
2022-11-25T08:34:23.027Z,15.73
2022-11-25T08:36:49.609Z,14.52
2022-11-25T08:39:44.062Z,19.23
2022-11-25T08:42:05.697Z,17.15
2022-11-25T08:44:32.273Z,16.02
2022-11-25T08:46:58.958Z,14.85
2022-11-25T08:49:27.155Z,17.17
2022-11-25T08:51:53.882Z,21.40
2022-11-25T08:54:20.462Z,22.52
2022-11-25T08:56:47.076Z,20.42
2022-11-25T08:59:13.672Z,25.60
2022-11-25T17:04:12.551Z,16.38
2022-11-25T17:06:39.326Z,20.83
2022-11-25T17:09:05.812Z,15.05
2022-11-25T17:11:36.183Z,19.40
2022-11-25T17:14:06.746Z,16.45
2022-11-25T17:16:33.594Z,17.15
2022-11-25T17:19:00.783Z,20.35
2022-11-25T17:21:29.011Z,16.25
2022-11-25T17:24:00.696Z,20.13
2022-11-25T17:26:38.596Z,20.30
2022-11-25T17:29:08.864Z,19.60
2022-11-25T17:31:37.752Z,19.35
2022-11-25T17:34:04.748Z,19.48
2022-11-25T17:36:31.545Z,19.10
2022-11-25T17:38:58.094Z,13.10
2022-11-25T17:41:27.010Z,12.23
2022-11-25T17:43:54.341Z,18.80
2022-11-25T17:46:21.579Z,17.17
2022-11-25T17:48:48.219Z,15.57
2022-11-25T17:51:14.942Z,18.50
2022-11-25T17:53:41.960Z,14.75
2022-11-25T17:56:24.717Z,15.57
2022-11-25T17:58:54.788Z,16.42
2022-11-25T18:01:21.507Z,14.73
2022-11-25T18:03:53.155Z,15.70
2022-11-25T18:06:21.052Z,24.35
2022-11-25T18:08:47.580Z,13.32
2022-11-25T18:11:18.306Z,14.00
2022-11-25T18:13:46.984Z,15.38
2022-11-25T18:16:17.154Z,12.00
2022-11-25T18:18:43.839Z,13.20
2022-11-25T18:21:11.712Z,14.30
2022-11-25T18:23:38.207Z,13.95
2022-11-25T18:26:05.210Z,13.73
2022-11-25T18:28:32.541Z,16.48
2022-11-25T18:31:03.423Z,11.88
2022-11-25T18:33:30.265Z,18.08
2022-11-25T18:35:57.304Z,23.27
2022-11-25T18:38:23.914Z,16.95
2022-11-25T18:40:53.738Z,15.00
2022-11-25T18:43:24.828Z,16.80
2022-11-25T18:45:53.535Z,11.75
2022-11-25T18:48:25.846Z,18.42
2022-11-25T18:50:54.948Z,15.00
2022-11-25T18:53:21.742Z,17.27
2022-11-25T18:55:49.543Z,20.00
2022-11-25T18:58:19.605Z,12.98
2022-11-25T19:00:48.640Z,16.77
2022-11-25T19:03:23.542Z,18.67
2022-11-25T19:05:50.687Z,16.10
2022-11-25T19:08:18.668Z,14.15
2022-11-25T19:10:47.194Z,11.05
2022-11-25T19:13:21.667Z,11.20
2022-11-25T19:15:48.658Z,14.68
2022-11-25T19:18:19.605Z,12.63
2022-11-25T19:20:46.083Z,14.63
2022-11-25T19:23:28.243Z,17.80
2022-11-25T19:25:59.922Z,15.00
2022-11-25T19:28:27.552Z,13.43
2022-11-25T19:31:00.172Z,11.95
2022-11-25T19:33:31.683Z,13.25
2022-11-25T19:35:58.532Z,11.55
2022-11-25T19:38:26.208Z,14.43
2022-11-25T19:40:54.857Z,19.02
2022-11-25T19:43:22.771Z,13.73
2022-11-25T19:45:53.731Z,12.43
2022-11-25T19:48:21.754Z,10.32
2022-11-25T19:50:59.067Z,10.93
2022-11-25T19:56:04.410Z,12.68
2022-11-25T19:58:31.494Z,13.20
2022-11-25T20:01:02.314Z,13.55
2022-11-25T20:03:31.369Z,12.52
2022-11-25T20:05:58.488Z,15.05
2022-11-25T20:08:27.638Z,15.13
2022-11-25T20:10:55.631Z,12.75
2022-11-25T20:13:26.267Z,11.15
2022-11-25T20:15:54.211Z,13.43
2022-11-25T20:18:22.996Z,14.32
2022-11-25T20:21:03.769Z,14.52
2022-11-25T20:23:43.391Z,12.60
2022-11-25T20:26:32.092Z,16.85
2022-11-25T20:28:58.754Z,16.00
2022-11-25T20:31:30.192Z,14.98
2022-11-25T20:33:57.126Z,13.32
2022-11-25T20:36:29.285Z,16.20
2022-11-25T20:38:57.805Z,12.88
2022-11-25T20:41:27.715Z,14.98
2022-11-25T20:43:55.209Z,14.23
2022-11-25T20:46:23.972Z,17.25
2022-11-25T20:48:56.609Z,15.63
2022-11-25T20:51:24.275Z,21.17
2022-11-25T20:53:53.235Z,14.88
2022-11-25T20:56:23.083Z,12.07
2022-11-25T20:58:49.738Z,15.30
2022-11-25T21:01:18.959Z,11.65
2022-11-25T21:03:46.889Z,11.05
2022-11-25T21:06:21.802Z,13.98
2022-11-25T21:08:50.607Z,11.30
2022-11-25T21:11:18.183Z,11.73
2022-11-25T21:13:45.653Z,15.68
2022-11-25T21:16:12.590Z,14.02
2022-11-25T21:18:41.300Z,19.17
2022-11-25T21:21:16.628Z,16.40
2022-11-25T21:23:44.254Z,16.52
2022-11-25T21:26:18.355Z,14.48
2022-11-25T21:28:47.114Z,14.30
2022-11-25T21:31:22.904Z,16.95
2022-11-25T21:33:50.592Z,13.82
2022-11-25T21:36:21.512Z,18.95
2022-11-25T21:38:51.029Z,12.70
2022-11-25T21:41:18.806Z,15.85
2022-11-25T21:43:48.717Z,12.38
2022-11-25T21:46:25.227Z,14.32
2022-11-25T21:48:51.946Z,17.27
2022-11-25T21:51:21.805Z,15.65
2022-11-25T21:53:50.967Z,17.92
2022-11-25T21:56:25.586Z,17.27
2022-11-25T21:58:52.430Z,16.35
2022-11-25T22:01:19.442Z,18.35
2022-11-25T22:03:45.940Z,15.38
2022-11-25T22:06:24.185Z,16.20
2022-11-25T22:08:51.261Z,18.90
2022-11-25T22:11:21.936Z,28.23
2022-11-25T22:13:49.725Z,26.70
2022-11-25T22:16:23.191Z,18.65
2022-11-25T22:18:50.067Z,16.88
2022-11-25T22:21:16.943Z,16.08
2022-11-25T22:23:43.485Z,16.35
2022-11-25T22:26:21.637Z,16.67
2022-11-25T22:28:51.232Z,16.60
2022-11-25T22:31:19.096Z,14.40
2022-11-25T22:33:46.191Z,19.30
2022-11-25T22:36:39.926Z,18.05
2022-11-25T22:39:14.580Z,14.98
2022-11-25T22:41:53.972Z,19.58
2022-11-25T22:44:37.897Z,20.73
2022-11-25T22:47:04.934Z,20.15
2022-11-25T22:49:35.824Z,16.23
2022-11-25T22:52:02.829Z,17.45
2022-11-25T22:54:29.491Z,19.33
2022-11-25T22:56:57.066Z,16.70
2022-11-25T22:59:23.929Z,18.80
2022-11-25T23:01:50.516Z,19.42
2022-11-25T23:04:19.175Z,16.35
2022-11-25T23:06:46.656Z,15.85
2022-11-25T23:09:15.868Z,15.35
2022-11-25T23:11:42.566Z,18.42
2022-11-25T23:14:09.664Z,19.50
2022-11-25T23:16:36.412Z,14.75
2022-11-25T23:19:04.708Z,14.73
2022-11-25T23:21:31.651Z,16.73
2022-11-25T23:23:58.162Z,17.83
2022-11-25T23:26:28.766Z,17.45
2022-11-25T23:28:58.827Z,16.35
2022-11-25T23:31:25.686Z,17.35
2022-11-25T23:33:52.462Z,15.80
2022-11-25T23:36:19.048Z,20.00
2022-11-25T23:38:49.910Z,13.85
2022-11-25T23:41:25.995Z,14.18
2022-11-25T23:43:53.108Z,17.38
2022-11-25T23:46:23.994Z,10.80
2022-11-25T23:48:57.455Z,15.93
2022-11-25T23:51:26.536Z,16.90
2022-11-25T23:53:54.446Z,17.73
2022-11-25T23:56:21.411Z,17.55
2022-11-25T23:58:49.488Z,16.17
